Terminal Aerodrome Forecast
Issued by NWS

Home | Current Version | Previous Version | Text Only | Print | Product List | Glossary On
Versions: 1 2 3 4 5 6 7 8 9 10 11 12 13 14
063
FTUS43 KILX 211745
TAFBMI
TAF
KBMI 211745Z 2118/2218 18018G26KT P6SM SCT110 BKN250
     FM220100 18017G24KT P6SM SCT120 BKN250
     FM220800 17016G22KT P6SM VCSH SCT050 BKN100
     FM221200 17015G22KT 5SM -SHRA BR VCTS SCT025CB OVC035
     FM221600 19018G24KT P6SM -SHRA OVC015=

USA.gov is the U.S. government's official web portal to all federal, state and local government web resources and services.